Time;durP1;ratioP1;P1;durP2;ratioP2;P2;SDS_P1;SDS_P2;PMS_P1;PMS_P2;Temp;Humidity;BMP_temperature;BMP_pressure;BME280_temperature;BME280_humidity;BME280_pressure;Samples;Min_cycle;Max_cycle;Signal;HPM_P1;HPM_P2
2022/02/07 00:01:00;;;;;;;10.60;2.47;;;3.80;99.90;;;;;;5035515;28;20052;-73
2022/02/07 00:03:33;;;;;;;11.40;2.00;;;3.80;99.90;;;;;;5036168;28;20482;-73
2022/02/07 00:05:59;;;;;;;9.52;2.03;;;3.90;99.90;;;;;;5036990;28;20034;-73
2022/02/07 00:08:25;;;;;;;8.25;1.90;;;3.90;99.90;;;;;;5035117;28;20083;-73
2022/02/07 00:10:50;;;;;;;7.82;1.80;;;3.90;99.90;;;;;;5036442;28;20463;-73
2022/02/07 00:13:16;;;;;;;13.00;2.35;;;3.90;99.90;;;;;;5035351;28;20052;-73
2022/02/07 00:15:42;;;;;;;9.38;1.77;;;4.00;99.90;;;;;;5036620;28;20033;-73
2022/02/07 00:18:08;;;;;;;15.27;2.20;;;4.10;99.90;;;;;;5034832;28;20053;-73
2022/02/07 00:20:35;;;;;;;13.00;2.50;;;4.20;99.90;;;;;;5036513;28;20124;-73
2022/02/07 00:23:01;;;;;;;10.05;2.40;;;4.40;99.90;;;;;;5036061;28;20037;-73
2022/02/07 00:25:27;;;;;;;12.65;2.90;;;4.40;99.90;;;;;;5036183;28;20500;-73
2022/02/07 00:27:53;;;;;;;6.60;1.40;;;4.40;99.90;;;;;;5035007;28;20037;-73
2022/02/07 00:30:20;;;;;;;8.63;2.17;;;4.50;99.90;;;;;;5034828;28;20397;-73
2022/02/07 00:32:46;;;;;;;7.35;1.25;;;4.50;99.90;;;;;;5036362;28;20046;-73
2022/02/07 00:35:17;;;;;;;12.25;1.65;;;4.40;99.90;;;;;;5036006;28;20037;-73
2022/02/07 00:37:45;;;;;;;10.18;2.58;;;4.40;99.90;;;;;;5034960;28;20493;-73
2022/02/07 00:45:41;;;;;;;9.20;2.80;;;4.30;99.90;;;;;;5016472;28;20091;-73
2022/02/07 00:48:08;;;;;;;13.68;2.88;;;4.30;99.90;;;;;;5035427;28;20041;-73
2022/02/07 00:50:35;;;;;;;24.13;3.42;;;4.30;99.90;;;;;;5036000;28;20121;-73
2022/02/07 00:53:01;;;;;;;15.57;3.35;;;4.40;99.90;;;;;;5035536;28;20544;-73
2022/02/07 00:55:27;;;;;;;13.82;3.03;;;4.50;99.90;;;;;;5035633;28;20421;-73
2022/02/07 00:57:53;;;;;;;15.20;3.10;;;4.50;99.90;;;;;;5035089;28;20037;-73
2022/02/07 01:00:19;;;;;;;11.85;3.00;;;4.50;99.90;;;;;;5035390;28;20037;-73
2022/02/07 01:02:45;;;;;;;11.43;3.30;;;4.60;99.90;;;;;;5035873;28;20045;-73
2022/02/07 01:05:12;;;;;;;33.38;5.90;;;4.70;99.90;;;;;;5035394;28;20068;-73
2022/02/07 01:07:39;;;;;;;18.42;3.50;;;4.80;99.90;;;;;;5034957;28;20072;-73
2022/02/07 01:10:06;;;;;;;12.65;2.75;;;4.90;99.90;;;;;;5035224;28;20493;-73
2022/02/07 01:21:12;;;;;;;12.07;1.95;;;5.00;99.90;;;;;;5035313;28;20077;-73
2022/02/07 01:55:48;;;;;;;22.58;2.83;;;5.10;99.90;;;;;;5033418;28;20481;-73
2022/02/07 01:58:14;;;;;;;12.07;2.92;;;5.10;99.90;;;;;;5034088;28;20041;-73
2022/02/07 02:00:42;;;;;;;21.83;3.45;;;5.10;99.90;;;;;;5032949;28;20049;-73
2022/02/07 02:03:08;;;;;;;15.95;3.08;;;5.10;99.90;;;;;;5034745;28;20049;-73
2022/02/07 02:05:37;;;;;;;15.90;3.13;;;5.10;99.90;;;;;;5034071;28;20045;-73
2022/02/07 02:08:08;;;;;;;18.65;3.78;;;5.10;99.90;;;;;;5034233;28;20096;-73
2022/02/07 02:10:35;;;;;;;28.42;4.35;;;5.10;99.90;;;;;;5032732;28;20057;-73
2022/02/07 02:13:19;;;;;;;15.80;3.20;;;5.20;99.90;;;;;;5034108;28;20045;-73
2022/02/07 02:21:52;;;;;;;14.10;3.17;;;5.40;99.90;;;;;;5032829;28;20402;-73
2022/02/07 02:38:03;;;;;;;16.63;4.07;;;5.20;99.90;;;;;;5033934;28;20041;-73
2022/02/07 02:45:42;;;;;;;17.42;3.75;;;5.00;99.90;;;;;;5032351;28;20037;-73
2022/02/07 02:48:19;;;;;;;23.15;3.75;;;5.10;99.90;;;;;;5015509;28;20048;-73
2022/02/07 02:50:49;;;;;;;16.92;3.45;;;5.00;99.90;;;;;;5033781;28;20034;-73
2022/02/07 02:53:16;;;;;;;18.55;4.13;;;5.10;99.90;;;;;;5033436;28;20091;-73
2022/02/07 02:55:43;;;;;;;17.00;3.03;;;5.20;99.90;;;;;;5033420;28;20485;-73
2022/02/07 02:58:12;;;;;;;15.82;4.28;;;5.10;99.90;;;;;;5032095;28;20056;-73
2022/02/07 03:00:40;;;;;;;18.00;3.80;;;5.10;99.90;;;;;;5034038;28;20042;-73
2022/02/07 03:03:05;;;;;;;24.65;3.45;;;5.30;99.90;;;;;;5032078;28;20042;-73
2022/02/07 03:05:31;;;;;;;12.55;3.28;;;5.40;99.90;;;;;;5033551;28;20037;-73
2022/02/07 03:07:58;;;;;;;21.85;4.70;;;5.40;99.90;;;;;;5032927;28;20038;-73
2022/02/07 03:13:07;;;;;;;15.15;3.35;;;5.50;99.90;;;;;;5033285;28;20045;-73
2022/02/07 03:18:17;;;;;;;21.55;3.95;;;5.40;99.90;;;;;;5033072;28;20049;-73
2022/02/07 03:20:42;;;;;;;26.83;4.63;;;5.60;99.90;;;;;;5033373;28;20136;-73
2022/02/07 03:23:08;;;;;;;19.10;3.50;;;5.50;99.90;;;;;;5033232;28;20042;-73
2022/02/07 03:25:34;;;;;;;19.67;4.60;;;5.50;99.90;;;;;;5033330;28;20037;-73
2022/02/07 03:28:00;;;;;;;30.58;4.40;;;5.50;99.90;;;;;;5032952;28;20481;-73
2022/02/07 03:30:26;;;;;;;24.90;4.25;;;5.60;99.90;;;;;;5032478;28;20044;-73
2022/02/07 03:32:51;;;;;;;19.60;3.20;;;5.60;99.90;;;;;;5032458;28;20041;-73
2022/02/07 03:35:19;;;;;;;17.98;3.70;;;5.60;99.90;;;;;;5033311;28;20038;-73
2022/02/07 03:37:45;;;;;;;18.05;4.60;;;5.60;99.90;;;;;;5032643;28;20060;-73
2022/02/07 03:40:11;;;;;;;16.55;3.35;;;5.60;99.90;;;;;;5033037;28;20037;-73
2022/02/07 03:42:36;;;;;;;21.50;4.00;;;5.60;99.90;;;;;;5033388;28;20053;-73
2022/02/07 03:45:03;;;;;;;18.88;4.15;;;5.60;99.90;;;;;;5033670;28;20389;-73
2022/02/07 03:47:30;;;;;;;14.73;3.38;;;5.50;99.90;;;;;;5032606;28;20052;-73
2022/02/07 03:49:57;;;;;;;19.20;3.30;;;5.50;99.90;;;;;;5033047;28;20045;-73
2022/02/07 03:52:23;;;;;;;17.23;3.70;;;5.40;99.90;;;;;;5032807;28;20037;-73
2022/02/07 03:54:49;;;;;;;14.68;3.05;;;5.50;99.90;;;;;;5031942;28;20434;-73
2022/02/07 03:57:15;;;;;;;16.10;2.95;;;5.40;99.90;;;;;;5032451;28;20120;-73
2022/02/07 03:59:41;;;;;;;20.98;3.55;;;5.50;99.90;;;;;;5031457;28;20088;-73
2022/02/07 04:02:07;;;;;;;26.00;3.63;;;5.50;99.90;;;;;;5035947;28;20401;-73
2022/02/07 04:04:33;;;;;;;18.65;3.90;;;5.40;99.90;;;;;;5036965;28;20042;-73
2022/02/07 04:06:59;;;;;;;19.83;3.78;;;5.50;99.90;;;;;;5036547;28;20037;-73
2022/02/07 04:09:31;;;;;;;18.30;3.17;;;5.40;99.90;;;;;;5035904;28;20539;-74
2022/02/07 04:12:04;;;;;;;15.73;3.65;;;5.40;99.90;;;;;;5036511;28;20088;-73
2022/02/07 04:14:29;;;;;;;16.05;3.95;;;5.40;99.90;;;;;;5035058;28;20438;-73
2022/02/07 04:16:55;;;;;;;21.15;4.30;;;5.50;99.90;;;;;;5036194;28;20116;-73
2022/02/07 04:19:23;;;;;;;28.92;4.72;;;5.60;99.90;;;;;;5036056;28;20029;-73
2022/02/07 04:21:51;;;;;;;35.10;5.25;;;5.50;99.90;;;;;;5034742;28;20029;-73
2022/02/07 04:24:17;;;;;;;23.02;4.13;;;5.70;99.90;;;;;;5036325;28;20077;-73
2022/02/07 04:26:43;;;;;;;25.23;6.75;;;5.70;99.90;;;;;;5036030;28;20033;-73
2022/02/07 04:29:09;;;;;;;8.57;1.70;;;5.60;99.90;;;;;;5034358;28;20401;-73
2022/02/07 04:31:36;;;;;;;5.80;1.48;;;5.00;99.90;;;;;;5036131;28;20039;-73
2022/02/07 04:34:01;;;;;;;3.13;0.60;;;4.70;99.90;;;;;;5036319;28;20133;-73
2022/02/07 04:36:27;;;;;;;3.05;0.50;;;4.70;99.90;;;;;;5036397;28;20533;-73
2022/02/07 04:38:53;;;;;;;5.30;0.95;;;4.70;99.90;;;;;;5035458;28;20068;-73
2022/02/07 04:41:18;;;;;;;3.40;1.08;;;4.70;99.90;;;;;;5035728;28;20107;-73
2022/02/07 04:43:50;;;;;;;7.65;0.65;;;4.60;99.90;;;;;;5035816;28;20477;-73
2022/02/07 04:49:20;;;;;;;6.70;1.20;;;4.50;99.90;;;;;;5034374;28;20456;-73
2022/02/07 05:13:43;;;;;;;13.20;1.90;;;4.60;99.90;;;;;;4979381;28;20056;-74
2022/02/07 05:15:59;;;;;;;21.80;4.72;;;4.90;99.90;;;;;;5034011;28;20045;-73
2022/02/07 05:18:27;;;;;;;23.67;4.72;;;5.00;99.90;;;;;;5016861;28;20048;-74
2022/02/07 05:20:53;;;;;;;24.13;4.32;;;5.10;99.90;;;;;;5034405;28;20045;-73
2022/02/07 05:23:19;;;;;;;19.02;5.43;;;5.20;99.90;;;;;;5034988;28;20087;-73
2022/02/07 05:25:45;;;;;;;19.60;4.75;;;5.20;99.90;;;;;;5033471;28;20038;-73
2022/02/07 05:28:11;;;;;;;17.65;4.00;;;5.40;99.90;;;;;;5016766;28;20048;-73
2022/02/07 05:30:37;;;;;;;22.55;4.30;;;5.40;99.90;;;;;;5034641;28;20081;-73
2022/02/07 05:33:02;;;;;;;34.70;4.95;;;5.50;99.90;;;;;;5034939;28;20077;-73
2022/02/07 05:35:28;;;;;;;27.80;4.15;;;5.60;99.90;;;;;;5034770;28;20084;-73
2022/02/07 05:37:54;;;;;;;33.22;4.00;;;5.70;99.90;;;;;;5034250;28;20049;-73
2022/02/07 05:40:36;;;;;;;13.85;3.63;;;5.60;99.90;;;;;;5034993;28;20060;-73
2022/02/07 05:43:02;;;;;;;22.05;3.35;;;5.50;99.90;;;;;;5033700;28;20055;-73
2022/02/07 05:45:28;;;;;;;18.02;4.03;;;5.50;99.90;;;;;;5033197;28;20120;-73
2022/02/07 05:47:54;;;;;;;24.13;4.05;;;5.50;99.90;;;;;;5034631;28;20041;-71
2022/02/07 05:50:19;;;;;;;15.15;3.83;;;5.50;99.90;;;;;;5035002;28;20041;-72
2022/02/07 05:52:45;;;;;;;15.95;3.47;;;5.50;99.90;;;;;;5033422;28;20038;-72
2022/02/07 05:55:11;;;;;;;16.52;4.82;;;5.40;99.90;;;;;;5033106;28;20041;-73
2022/02/07 05:57:36;;;;;;;19.45;3.75;;;5.40;99.90;;;;;;5034129;28;20124;-72
2022/02/07 06:00:05;;;;;;;23.00;4.00;;;5.40;99.90;;;;;;5034675;28;20037;-70
2022/02/07 06:02:30;;;;;;;16.88;3.30;;;5.40;99.90;;;;;;5034232;28;20098;-70
2022/02/07 06:04:56;;;;;;;18.92;3.67;;;5.40;99.90;;;;;;5034365;28;20045;-71
2022/02/07 06:07:21;;;;;;;21.00;3.75;;;5.40;99.90;;;;;;5033726;28;20041;-71
2022/02/07 06:09:47;;;;;;;16.95;5.03;;;5.60;99.90;;;;;;5034257;28;20172;-71
2022/02/07 06:12:12;;;;;;;19.95;4.20;;;5.70;99.90;;;;;;5034358;28;20041;-71
2022/02/07 06:14:38;;;;;;;26.10;3.90;;;5.50;99.90;;;;;;5033283;28;20128;-71
2022/02/07 06:17:04;;;;;;;21.05;3.55;;;5.50;99.90;;;;;;5032667;28;20409;-71
2022/02/07 06:19:30;;;;;;;28.17;4.38;;;5.50;99.90;;;;;;5033556;28;20041;-71
2022/02/07 06:21:56;;;;;;;23.92;4.32;;;5.50;99.90;;;;;;5033142;28;20049;-71
2022/02/07 06:24:22;;;;;;;28.13;4.32;;;5.30;99.90;;;;;;5031647;28;20045;-71
2022/02/07 06:26:48;;;;;;;25.95;4.90;;;5.30;99.90;;;;;;5032090;28;20033;-71
2022/02/07 06:29:13;;;;;;;17.50;4.55;;;5.20;99.90;;;;;;5033257;28;20076;-72
2022/02/07 06:31:39;;;;;;;25.73;6.32;;;5.10;99.90;;;;;;5033709;28;20034;-71
2022/02/07 06:34:04;;;;;;;27.67;5.00;;;5.00;99.90;;;;;;5034231;28;20052;-69
2022/02/07 06:36:30;;;;;;;24.23;4.38;;;5.00;99.90;;;;;;5032378;28;20460;-70
2022/02/07 06:38:56;;;;;;;19.90;5.07;;;4.90;99.90;;;;;;5033125;28;20060;-70
2022/02/07 06:41:21;;;;;;;19.48;4.32;;;4.90;99.90;;;;;;5033866;28;20045;-70
2022/02/07 06:43:47;;;;;;;26.92;4.32;;;4.90;99.90;;;;;;5033897;28;20041;-70
2022/02/07 06:46:12;;;;;;;28.00;4.45;;;4.90;99.90;;;;;;5032616;28;20084;-70
2022/02/07 06:48:38;;;;;;;24.65;4.95;;;4.90;99.90;;;;;;5033265;28;20117;-70
2022/02/07 06:51:05;;;;;;;24.27;5.35;;;4.90;99.90;;;;;;5033491;28;20385;-70
2022/02/07 06:53:31;;;;;;;25.95;4.32;;;4.90;99.90;;;;;;5032654;28;20049;-70
2022/02/07 06:55:57;;;;;;;22.55;4.78;;;4.90;99.90;;;;;;5016026;28;20045;-70
2022/02/07 06:58:22;;;;;;;25.08;6.25;;;4.90;99.90;;;;;;5031675;28;20033;-70
2022/02/07 07:00:48;;;;;;;21.67;4.43;;;5.00;99.90;;;;;;5033560;28;20038;-69
2022/02/07 07:03:18;;;;;;;24.13;4.72;;;5.00;99.90;;;;;;5032767;28;20401;-70
2022/02/07 07:05:44;;;;;;;29.65;5.88;;;4.90;99.90;;;;;;5033276;28;20046;-70
2022/02/07 07:08:10;;;;;;;29.00;6.43;;;4.80;99.90;;;;;;5032960;28;20048;-70
2022/02/07 07:10:36;;;;;;;31.55;4.78;;;4.80;99.90;;;;;;5032823;28;20030;-70
2022/02/07 07:13:08;;;;;;;30.17;4.93;;;4.80;99.90;;;;;;5033643;28;20037;-70
2022/02/07 07:15:41;;;;;;;32.67;4.63;;;4.80;99.90;;;;;;5033334;28;20042;-70
2022/02/07 07:18:07;;;;;;;24.60;5.47;;;4.80;99.90;;;;;;5033142;28;20115;-70
2022/02/07 07:20:35;;;;;;;34.30;7.55;;;4.70;99.90;;;;;;5033395;28;20385;-70
2022/02/07 07:23:01;;;;;;;31.70;7.53;;;4.70;99.90;;;;;;5033149;28;20045;-68
2022/02/07 07:25:29;;;;;;;29.23;5.60;;;4.80;99.90;;;;;;5033205;28;20045;-70
2022/02/07 07:28:03;;;;;;;22.80;4.78;;;4.80;99.90;;;;;;5031556;28;20044;-70
2022/02/07 07:30:34;;;;;;;34.42;5.80;;;4.90;99.90;;;;;;5033794;28;20033;-70
2022/02/07 07:33:04;;;;;;;27.10;5.10;;;4.90;99.90;;;;;;5033412;28;20491;-70
2022/02/07 07:35:30;;;;;;;22.55;4.93;;;4.80;99.90;;;;;;5033608;28;20037;-69
2022/02/07 07:37:56;;;;;;;20.42;5.15;;;4.80;99.90;;;;;;5036807;28;20117;-70
2022/02/07 07:40:21;;;;;;;32.80;6.25;;;4.80;99.90;;;;;;5036789;28;20037;-70
2022/02/07 07:42:52;;;;;;;32.38;6.03;;;4.80;99.90;;;;;;5036167;28;20044;-70
2022/02/07 07:45:22;;;;;;;25.83;5.50;;;4.80;99.90;;;;;;5037036;28;20167;-70
2022/02/07 07:47:49;;;;;;;31.70;5.53;;;4.80;99.90;;;;;;5035161;28;20069;-70
2022/02/07 07:50:26;;;;;;;22.33;6.18;;;4.80;99.90;;;;;;5037159;28;20037;-70
2022/02/07 08:03:16;;;;;;;35.20;6.10;;;5.10;99.90;;;;;;5036617;28;20042;-70
2022/02/07 08:05:46;;;;;;;25.55;5.07;;;5.00;99.90;;;;;;5035856;28;20057;-70
2022/02/07 08:08:40;;;;;;;32.90;6.07;;;5.00;99.90;;;;;;5034850;28;20481;-70
2022/02/07 08:11:07;;;;;;;26.25;5.43;;;5.00;99.90;;;;;;5035390;28;20056;-70
2022/02/07 08:13:33;;;;;;;29.00;5.72;;;5.10;99.90;;;;;;5036905;28;20152;-70
2022/02/07 08:15:59;;;;;;;38.90;5.25;;;5.10;99.90;;;;;;5035263;28;20049;-70
2022/02/07 08:18:26;;;;;;;39.35;8.30;;;5.20;99.90;;;;;;5035659;28;20073;-70
2022/02/07 08:20:52;;;;;;;31.23;6.45;;;5.20;99.90;;;;;;5036724;28;20118;-69
2022/02/07 08:23:18;;;;;;;29.00;6.15;;;5.30;99.90;;;;;;5036505;28;20069;-69
2022/02/07 08:25:43;;;;;;;30.75;7.25;;;5.40;99.90;;;;;;5036420;28;20037;-69
2022/02/07 08:28:09;;;;;;;40.58;8.00;;;5.50;99.90;;;;;;5035715;28;20029;-69
2022/02/07 08:30:35;;;;;;;27.50;6.65;;;5.60;99.90;;;;;;5036351;28;20033;-70
2022/02/07 08:33:02;;;;;;;32.03;6.38;;;5.70;99.90;;;;;;5036228;28;20046;-70
2022/02/07 08:35:28;;;;;;;32.67;5.35;;;5.80;99.90;;;;;;5036260;28;20045;-69
2022/02/07 08:37:54;;;;;;;42.70;7.68;;;5.80;99.90;;;;;;5035787;28;20042;-70
2022/02/07 08:40:20;;;;;;;25.30;5.00;;;6.00;99.90;;;;;;5034509;28;20056;-70
2022/02/07 08:42:46;;;;;;;27.27;5.78;;;6.00;99.90;;;;;;5036245;28;20485;-69
2022/02/07 08:45:14;;;;;;;34.13;7.85;;;6.00;99.90;;;;;;5036443;28;20076;-70
2022/02/07 08:47:41;;;;;;;25.92;6.00;;;6.10;99.90;;;;;;5034352;28;20060;-69
2022/02/07 08:50:08;;;;;;;30.40;5.78;;;6.10;99.90;;;;;;5034661;28;20052;-70
2022/02/07 08:52:34;;;;;;;34.80;7.05;;;6.20;99.90;;;;;;5035682;28;20049;-69
2022/02/07 08:55:01;;;;;;;38.60;8.73;;;6.20;99.90;;;;;;5035728;28;20068;-70
2022/02/07 08:57:38;;;;;;;31.17;5.53;;;6.20;99.90;;;;;;5035783;28;20052;-70
2022/02/07 09:07:45;;;;;;;30.83;6.57;;;6.50;99.90;;;;;;5035295;28;20563;-70
2022/02/07 09:10:11;;;;;;;41.38;7.60;;;6.40;99.90;;;;;;5035297;28;20114;-70
2022/02/07 09:12:40;;;;;;;29.00;5.65;;;6.50;99.90;;;;;;5035403;28;20489;-70
2022/02/07 09:15:27;;;;;;;38.63;7.32;;;6.60;99.90;;;;;;5034102;28;20521;-70
2022/02/07 09:17:51;;;;;;;37.83;6.93;;;6.60;99.90;;;;;;5033468;28;20045;-70
2022/02/07 09:20:17;;;;;;;28.35;6.38;;;6.70;99.90;;;;;;5034370;28;20084;-70
2022/02/07 09:22:42;;;;;;;25.55;6.82;;;6.80;99.90;;;;;;5034066;28;20052;-70
2022/02/07 09:25:08;;;;;;;25.08;6.78;;;6.70;99.90;;;;;;5033602;28;20512;-70
2022/02/07 09:27:36;;;;;;;27.77;5.93;;;6.80;99.90;;;;;;5033338;28;20037;-70
2022/02/07 09:30:06;;;;;;;29.58;6.00;;;6.80;99.90;;;;;;5034150;28;20064;-70
2022/02/07 09:32:32;;;;;;;30.70;5.15;;;6.90;99.90;;;;;;5034288;28;20049;-70
2022/02/07 09:34:58;;;;;;;29.80;6.65;;;6.90;99.90;;;;;;5034702;28;20041;-70
2022/02/07 09:37:24;;;;;;;23.25;4.18;;;6.90;99.90;;;;;;5034574;28;20047;-70
2022/02/07 09:39:49;;;;;;;27.25;5.28;;;7.00;99.90;;;;;;5034814;28;20049;-70
2022/02/07 09:42:17;;;;;;;31.50;6.10;;;7.00;99.90;;;;;;5034582;28;20041;-70
2022/02/07 09:44:49;;;;;;;26.65;5.63;;;7.10;99.90;;;;;;5034998;28;20079;-70
2022/02/07 09:47:15;;;;;;;28.10;5.35;;;7.10;99.90;;;;;;5033908;28;20041;-70
2022/02/07 09:49:42;;;;;;;28.25;5.85;;;7.20;99.90;;;;;;5034319;28;20504;-70
2022/02/07 09:52:09;;;;;;;28.98;5.45;;;7.20;99.90;;;;;;5034409;28;20482;-70
2022/02/07 09:54:35;;;;;;;35.50;5.93;;;7.20;99.90;;;;;;5033304;28;20037;-70
2022/02/07 09:57:01;;;;;;;17.23;5.30;;;7.20;99.90;;;;;;5034738;28;20393;-70
2022/02/07 09:59:29;;;;;;;23.55;5.70;;;7.20;99.90;;;;;;5032524;28;20041;-70
2022/02/07 10:01:59;;;;;;;32.13;4.88;;;7.20;99.90;;;;;;5033561;28;20061;-70
2022/02/07 10:04:41;;;;;;;26.35;5.80;;;7.20;99.90;;;;;;5032862;28;20042;-70
2022/02/07 10:07:24;;;;;;;23.45;5.10;;;7.20;99.90;;;;;;5034517;28;20041;-70
2022/02/07 10:10:11;;;;;;;28.42;5.85;;;7.30;99.90;;;;;;5033048;28;20041;-70
2022/02/07 10:12:51;;;;;;;21.85;5.72;;;7.30;99.90;;;;;;5034139;28;20053;-70
2022/02/07 10:15:27;;;;;;;25.05;6.60;;;7.30;99.90;;;;;;5034082;28;20049;-70
2022/02/07 10:18:14;;;;;;;34.45;6.07;;;7.40;99.90;;;;;;5032764;28;20045;-70
2022/02/07 10:35:18;;;;;;;27.48;5.10;;;7.50;99.90;;;;;;5032462;28;20049;-70
2022/02/07 10:40:54;;;;;;;25.52;4.88;;;7.60;99.90;;;;;;5033470;28;20034;-70
2022/02/07 10:43:31;;;;;;;20.73;5.18;;;7.50;99.90;;;;;;5032543;28;20444;-70
2022/02/07 10:46:08;;;;;;;24.73;5.63;;;7.50;99.90;;;;;;5032956;28;20048;-70
2022/02/07 10:48:39;;;;;;;25.20;4.90;;;7.60;99.90;;;;;;5030749;28;20041;-72
2022/02/07 10:51:06;;;;;;;22.65;4.80;;;7.70;99.90;;;;;;5033564;28;20045;-74
